KHYS

Hays Regional Airport

Hays, Kansas, USA
KHYS 141721Z 1418/1518 31007KT P6SM SKC
Issued Valid From Valid To
Dec-14 @ 17:21 UTC
(5 hours ago)
Dec-14 @ 18:00 UTC
(4 hours ago)
Dec-15 @ 18:00 UTC
(in 20 hours)
Dec-14 @ 18:00 to Dec-15 @ 18:00
KHYS 141721Z 1418/1518 31007KT P6SM SKC
Wind Visibility Clouds
310° at 7 knots Greater than 6 miles
  • Clear skies
KHYS 141721Z 1418/1518 31007KT P6SM SKC
Issued Dec-14 @ 17:21 UTC
(5 hours ago)
Valid From Dec-14 @ 18:00 UTC
(4 hours ago)
Valid To Dec-15 @ 18:00 UTC
(in 20 hours)
Dec-14 @ 18:00 - Dec-15 @ 18:00
Wind Visibility
310° at 7 knots Greater than 6 miles
Clouds
  • Clear skies